createdAt,value
2023-01-11T00:00:21.284Z,3.40
2023-01-11T00:02:52.037Z,3.53
2023-01-11T00:05:21.157Z,3.47
2023-01-11T00:07:50.238Z,4.20
2023-01-11T00:10:20.948Z,3.30
2023-01-11T00:12:50.499Z,3.43
2023-01-11T00:15:19.639Z,4.20
2023-01-11T00:17:48.815Z,3.73
2023-01-11T00:20:18.062Z,3.50
2023-01-11T00:22:47.236Z,3.10
2023-01-11T00:25:16.374Z,3.20
2023-01-11T00:27:49.676Z,3.63
2023-01-11T00:30:19.247Z,3.43
2023-01-11T00:32:48.315Z,3.60
2023-01-11T00:35:17.824Z,3.37
2023-01-11T00:37:46.863Z,4.10
2023-01-11T00:40:16.295Z,3.73
2023-01-11T00:43:02.995Z,3.13
2023-01-11T00:45:51.146Z,3.93
2023-01-11T00:48:20.555Z,3.83
2023-01-11T00:50:49.590Z,5.03
2023-01-11T00:53:19.513Z,4.93
2023-01-11T00:55:48.675Z,4.27
2023-01-11T00:58:18.011Z,4.77
2023-01-11T01:00:48.510Z,4.37
2023-01-11T01:03:17.645Z,4.53
2023-01-11T01:05:46.709Z,3.20
2023-01-11T01:08:15.939Z,4.30
2023-01-11T01:10:44.982Z,3.97
2023-01-11T01:13:31.828Z,4.20
2023-01-11T01:16:02.465Z,3.33
2023-01-11T01:18:31.664Z,3.60
2023-01-11T01:21:00.656Z,3.63
2023-01-11T01:23:29.712Z,3.73
2023-01-11T01:25:58.820Z,4.63
2023-01-11T01:28:27.958Z,3.60
2023-01-11T01:30:57.163Z,3.80
2023-01-11T01:33:27.874Z,3.77
2023-01-11T01:35:57.087Z,3.60
2023-01-11T01:38:26.309Z,3.90
2023-01-11T01:40:56.994Z,3.30
2023-01-11T01:43:26.836Z,3.90
2023-01-11T01:45:56.497Z,3.70
2023-01-11T01:48:28.732Z,3.40
2023-01-11T01:51:00.001Z,3.57
2023-01-11T01:53:31.997Z,4.10
2023-01-11T01:56:02.864Z,3.80
2023-01-11T01:58:33.725Z,4.40
2023-01-11T02:01:23.344Z,5.03
2023-01-11T02:03:54.588Z,4.13
2023-01-11T02:06:24.713Z,3.83
2023-01-11T02:08:57.915Z,5.20
2023-01-11T02:11:31.355Z,4.23
2023-01-11T02:14:01.320Z,4.00
2023-01-11T02:16:30.473Z,4.00
2023-01-11T02:19:01.578Z,4.27
2023-01-11T02:21:38.238Z,4.00
2023-01-11T02:24:25.298Z,4.67
2023-01-11T02:27:12.216Z,4.40
2023-01-11T02:29:46.643Z,3.70
2023-01-11T02:32:22.022Z,3.27
2023-01-11T02:34:55.265Z,3.50
2023-01-11T02:37:29.331Z,3.40
2023-01-11T02:40:03.001Z,3.63
2023-01-11T02:42:56.416Z,3.60
2023-01-11T02:45:36.807Z,4.20
2023-01-11T02:48:11.794Z,3.03
2023-01-11T02:50:44.037Z,3.30
2023-01-11T02:53:18.371Z,3.70
2023-01-11T02:55:49.172Z,3.70
2023-01-11T02:58:18.579Z,4.27
2023-01-11T03:01:13.170Z,3.60
2023-01-11T03:03:42.267Z,3.47
2023-01-11T03:06:15.334Z,3.80
2023-01-11T03:08:51.020Z,3.93
2023-01-11T03:11:46.400Z,3.70
2023-01-11T03:14:21.558Z,3.50
2023-01-11T03:16:53.960Z,3.07
2023-01-11T03:19:27.727Z,3.80
2023-01-11T03:22:01.111Z,4.30
2023-01-11T03:24:33.131Z,3.50
2023-01-11T03:27:10.836Z,3.50
2023-01-11T03:29:42.297Z,3.47
2023-01-11T03:32:19.712Z,3.10
2023-01-11T03:34:51.012Z,3.60
2023-01-11T03:37:23.068Z,3.43
2023-01-11T03:39:57.687Z,3.40
2023-01-11T03:42:28.510Z,3.40
2023-01-11T03:44:58.813Z,3.20
2023-01-11T03:47:31.283Z,2.93
2023-01-11T03:50:02.017Z,3.30
2023-01-11T03:52:33.995Z,3.07
2023-01-11T03:55:05.467Z,3.13
2023-01-11T03:57:35.791Z,3.67
2023-01-11T04:00:06.931Z,3.63
2023-01-11T04:02:38.369Z,2.57
2023-01-11T04:05:08.075Z,2.70
2023-01-11T04:07:37.355Z,2.70
2023-01-11T04:10:06.848Z,3.27
2023-01-11T04:12:35.980Z,3.10
2023-01-11T04:15:05.375Z,3.03
2023-01-11T04:17:34.451Z,3.00
2023-01-11T04:20:05.026Z,2.90
2023-01-11T04:22:34.206Z,2.77
2023-01-11T04:25:03.314Z,3.10
2023-01-11T04:27:32.678Z,3.40
2023-01-11T04:30:01.714Z,2.77
2023-01-11T04:32:30.895Z,3.93
2023-01-11T04:35:00.051Z,3.60
2023-01-11T04:37:30.683Z,3.77
2023-01-11T04:39:59.719Z,3.77
2023-01-11T04:42:29.327Z,3.20
2023-01-11T04:44:58.380Z,3.13
2023-01-11T04:47:27.688Z,3.17
2023-01-11T04:49:56.898Z,3.10
2023-01-11T04:52:26.087Z,3.20
2023-01-11T04:54:56.632Z,3.90
2023-01-11T04:57:26.545Z,3.00
2023-01-11T04:59:55.665Z,2.90
2023-01-11T05:02:24.840Z,2.90
2023-01-11T05:04:54.005Z,2.80
2023-01-11T05:07:23.217Z,3.17
2023-01-11T05:09:52.441Z,3.00
2023-01-11T05:12:23.261Z,2.97
2023-01-11T05:14:52.745Z,3.40
2023-01-11T05:17:21.969Z,3.70
2023-01-11T05:19:51.208Z,2.63
2023-01-11T05:22:20.585Z,2.40
2023-01-11T05:24:49.866Z,3.23
2023-01-11T05:27:19.119Z,2.87
2023-01-11T05:29:49.820Z,2.50
2023-01-11T05:32:19.063Z,2.70
2023-01-11T05:34:48.306Z,3.20
2023-01-11T05:37:17.500Z,3.23
2023-01-11T05:39:46.825Z,3.20
2023-01-11T05:42:16.853Z,3.07
2023-01-11T05:45:03.667Z,3.23
2023-01-11T05:47:34.630Z,4.00
2023-01-11T05:50:03.849Z,4.10
2023-01-11T05:52:33.041Z,3.50
2023-01-11T05:55:02.247Z,3.20
2023-01-11T05:57:31.967Z,3.00
2023-01-11T06:00:01.484Z,3.30
2023-01-11T06:02:37.990Z,3.60
2023-01-11T06:05:07.749Z,3.90
2023-01-11T06:07:37.075Z,3.40
2023-01-11T06:10:06.533Z,4.23
2023-01-11T06:12:35.745Z,3.50
2023-01-11T06:15:04.973Z,5.57
2023-01-11T06:17:34.178Z,3.83
2023-01-11T06:20:04.975Z,3.47
2023-01-11T06:22:34.251Z,3.90
2023-01-11T06:25:03.735Z,4.40
2023-01-11T06:27:33.043Z,4.27
2023-01-11T06:30:02.299Z,3.20
2023-01-11T06:32:31.717Z,3.20
2023-01-11T06:35:00.953Z,4.03
2023-01-11T06:37:31.667Z,5.00
2023-01-11T06:40:00.849Z,3.97
2023-01-11T06:42:30.068Z,4.30
2023-01-11T06:44:59.306Z,4.80
2023-01-11T06:47:28.848Z,4.27
2023-01-11T06:49:58.143Z,5.20
2023-01-11T06:52:27.404Z,3.63
2023-01-11T06:54:58.177Z,3.20
2023-01-11T06:57:27.405Z,4.00
2023-01-11T06:59:56.662Z,4.20
2023-01-11T07:02:26.788Z,4.63
2023-01-11T07:04:55.955Z,4.50
2023-01-11T07:07:25.191Z,5.30
2023-01-11T07:09:55.303Z,4.13
2023-01-11T07:12:25.973Z,3.03
2023-01-11T07:14:55.211Z,4.03
2023-01-11T07:17:24.388Z,4.50
2023-01-11T07:19:53.634Z,3.80
2023-01-11T07:22:23.848Z,3.77
2023-01-11T07:24:53.416Z,4.20
2023-01-11T07:27:22.623Z,4.93
2023-01-11T07:29:53.672Z,5.23
2023-01-11T07:32:23.119Z,5.27
2023-01-11T07:34:52.305Z,3.67
2023-01-11T07:37:28.273Z,5.53
2023-01-11T07:39:58.491Z,4.10
2023-01-11T07:42:45.326Z,4.53
2023-01-11T07:45:16.127Z,3.90
2023-01-11T07:47:45.504Z,5.40
2023-01-11T07:50:14.724Z,6.00
2023-01-11T07:52:48.702Z,4.73
2023-01-11T07:55:18.059Z,5.60
2023-01-11T07:57:47.256Z,4.10
2023-01-11T08:00:17.975Z,4.27
2023-01-11T08:02:52.666Z,4.40
2023-01-11T08:05:22.445Z,3.60
2023-01-11T08:07:52.352Z,4.90
2023-01-11T08:10:21.664Z,4.40
2023-01-11T08:13:08.887Z,4.30
2023-01-11T08:15:39.267Z,4.60
2023-01-11T08:18:10.082Z,4.53
2023-01-11T08:20:39.346Z,4.90
2023-01-11T08:23:09.937Z,4.30
2023-01-11T08:25:39.377Z,3.90
2023-01-11T08:28:09.160Z,4.70
2023-01-11T08:30:38.551Z,4.57
2023-01-11T08:33:09.116Z,4.00
2023-01-11T08:35:40.021Z,4.17
2023-01-11T08:38:09.903Z,4.87
2023-01-11T08:40:39.257Z,3.40
2023-01-11T08:43:08.507Z,4.67
2023-01-11T08:45:37.767Z,4.00
2023-01-11T08:48:07.284Z,5.43
2023-01-11T08:50:38.345Z,3.67
2023-01-11T08:53:07.506Z,3.27
2023-01-11T08:55:36.702Z,3.80
2023-01-11T08:58:06.025Z,4.13
2023-01-11T09:00:35.207Z,4.33
2023-01-11T09:03:04.948Z,4.87
2023-01-11T09:05:34.289Z,4.60
2023-01-11T09:08:05.131Z,5.87
2023-01-11T09:10:34.806Z,3.33
2023-01-11T09:13:04.072Z,4.70
2023-01-11T09:15:33.552Z,3.90
2023-01-11T09:18:03.426Z,4.33
2023-01-11T09:20:32.963Z,4.20
2023-01-11T09:23:02.121Z,4.77
2023-01-11T09:25:32.825Z,5.20
2023-01-11T09:28:02.102Z,5.03
2023-01-11T09:30:31.495Z,4.07
2023-01-11T09:33:00.674Z,4.83
2023-01-11T09:35:29.985Z,4.77
2023-01-11T09:38:00.304Z,4.67
2023-01-11T09:40:35.603Z,4.80
2023-01-11T09:43:08.935Z,5.27
2023-01-11T09:45:39.687Z,5.70
2023-01-11T09:48:15.629Z,5.87
2023-01-11T09:50:47.943Z,6.03
2023-01-11T09:53:20.892Z,5.00
2023-01-11T09:55:53.681Z,4.80
2023-01-11T09:58:42.115Z,6.33
2023-01-11T10:01:19.772Z,5.90
2023-01-11T10:04:16.577Z,6.63
2023-01-11T10:06:51.902Z,5.57
2023-01-11T10:18:29.797Z,6.40
2023-01-11T10:21:26.999Z,5.60
2023-01-11T10:23:57.865Z,5.90
2023-01-11T10:26:29.308Z,5.60
2023-01-11T10:29:18.144Z,6.07
2023-01-11T10:32:06.615Z,5.40
2023-01-11T10:34:50.158Z,5.37
2023-01-11T10:37:40.422Z,4.23
2023-01-11T10:40:22.784Z,5.30
2023-01-11T10:42:53.932Z,6.47
2023-01-11T10:45:25.720Z,5.77
2023-01-11T10:47:57.917Z,5.73
2023-01-11T10:50:30.297Z,6.17
2023-01-11T10:53:03.688Z,5.47
2023-01-11T10:58:13.756Z,5.20
2023-01-11T11:00:55.134Z,11.67
2023-01-11T11:03:33.024Z,5.10
2023-01-11T11:06:04.980Z,4.50
2023-01-11T11:08:40.068Z,4.83
2023-01-11T11:11:12.038Z,5.00
2023-01-11T11:13:45.794Z,4.13
2023-01-11T11:16:21.803Z,4.83
2023-01-11T11:18:51.890Z,4.00
2023-01-11T11:21:23.568Z,4.83
2023-01-11T11:24:00.557Z,3.97
2023-01-11T11:26:32.073Z,5.00
2023-01-11T11:29:04.939Z,6.23
2023-01-11T11:31:34.753Z,5.40
2023-01-11T11:34:07.123Z,4.97
2023-01-11T11:36:43.776Z,5.60
2023-01-11T11:39:24.556Z,4.43
2023-01-11T11:41:54.512Z,4.27
2023-01-11T11:44:25.087Z,3.60
2023-01-11T11:47:01.442Z,3.40
2023-01-11T11:49:31.727Z,3.87
2023-01-11T11:52:01.759Z,4.33
2023-01-11T11:54:33.981Z,6.97
2023-01-11T11:57:15.653Z,3.93
2023-01-11T11:59:47.888Z,3.43
2023-01-11T12:02:23.752Z,6.30
2023-01-11T12:04:53.427Z,4.00
2023-01-11T12:07:23.869Z,3.97
2023-01-11T12:10:04.989Z,3.90
2023-01-11T12:12:34.908Z,5.80
2023-01-11T12:15:09.395Z,3.00
2023-01-11T12:17:39.152Z,2.97
2023-01-11T12:20:28.317Z,3.40
2023-01-11T12:23:12.855Z,3.67
2023-01-11T12:25:47.576Z,2.97
2023-01-11T12:28:20.881Z,5.33
2023-01-11T12:30:53.204Z,3.40
2023-01-11T12:33:31.066Z,3.77
2023-01-11T12:36:03.989Z,3.90
2023-01-11T12:38:38.728Z,3.73
2023-01-11T12:41:42.797Z,3.90
2023-01-11T12:44:16.308Z,5.67
2023-01-11T12:46:52.555Z,4.20
2023-01-11T12:49:27.119Z,3.53
2023-01-11T12:52:04.947Z,3.23
2023-01-11T12:54:41.065Z,3.63
2023-01-11T12:57:16.426Z,3.47
2023-01-11T12:59:56.936Z,3.77
2023-01-11T13:02:36.254Z,4.40
2023-01-11T13:05:11.722Z,3.80
2023-01-11T13:07:46.755Z,4.90
2023-01-11T13:10:23.980Z,4.53
2023-01-11T13:12:56.653Z,5.60
2023-01-11T13:15:34.417Z,4.30
2023-01-11T13:18:07.742Z,3.67
2023-01-11T13:20:59.336Z,4.60
2023-01-11T13:23:35.705Z,4.50
2023-01-11T13:26:09.519Z,4.03
2023-01-11T13:28:41.248Z,3.53
2023-01-11T13:31:13.915Z,4.00
2023-01-11T13:33:46.095Z,3.90
2023-01-11T13:36:23.390Z,4.03
2023-01-11T13:38:57.398Z,3.87
2023-01-11T13:41:28.439Z,4.43
2023-01-11T13:44:00.509Z,3.97
2023-01-11T13:46:41.057Z,4.23
2023-01-11T13:49:16.683Z,4.00
2023-01-11T13:51:51.828Z,3.60
2023-01-11T13:54:25.399Z,3.63
2023-01-11T13:56:58.101Z,3.50
2023-01-11T13:59:29.816Z,3.80
2023-01-11T14:02:03.096Z,3.50
2023-01-11T14:04:34.395Z,3.60
2023-01-11T14:07:11.047Z,2.80
2023-01-11T14:09:56.179Z,3.10
2023-01-11T14:12:30.089Z,3.37
2023-01-11T14:15:09.824Z,3.77
2023-01-11T14:17:45.368Z,3.47
2023-01-11T14:20:19.160Z,3.53
2023-01-11T14:22:51.867Z,3.43
2023-01-11T14:25:24.366Z,3.10
2023-01-11T14:28:14.657Z,3.10
2023-01-11T14:30:55.275Z,4.20
2023-01-11T14:33:37.248Z,6.37
2023-01-11T14:36:16.713Z,4.07
2023-01-11T14:39:03.923Z,4.00
2023-01-11T14:41:41.413Z,4.40
2023-01-11T14:44:17.539Z,4.50
2023-01-11T14:47:14.228Z,4.20
2023-01-11T14:49:54.488Z,4.03
2023-01-11T14:52:38.865Z,5.60
2023-01-11T14:55:16.556Z,5.73
2023-01-11T14:57:46.588Z,3.90
2023-01-11T15:00:34.670Z,3.60
2023-01-11T15:03:20.927Z,5.07
2023-01-11T15:05:53.777Z,5.20
2023-01-11T15:08:25.391Z,3.80
2023-01-11T15:10:58.354Z,3.60
2023-01-11T15:13:30.137Z,3.53
2023-01-11T15:16:27.712Z,3.53
2023-01-11T15:18:57.391Z,5.90
2023-01-11T15:21:29.694Z,4.27
2023-01-11T15:24:00.082Z,7.93
2023-01-11T15:26:29.465Z,5.10
2023-01-11T15:28:59.427Z,4.60
2023-01-11T15:31:40.333Z,5.57
2023-01-11T15:34:20.730Z,4.60
2023-01-11T15:36:55.806Z,4.77
2023-01-11T15:39:29.614Z,4.80
2023-01-11T15:42:06.150Z,5.30
2023-01-11T15:44:44.141Z,4.97
2023-01-11T15:47:26.792Z,5.37
2023-01-11T15:50:10.938Z,4.87
2023-01-11T15:52:54.336Z,6.30
2023-01-11T15:55:48.479Z,5.50
2023-01-11T15:58:28.450Z,6.10
2023-01-11T16:01:08.186Z,5.27
2023-01-11T16:04:00.489Z,5.60
2023-01-11T16:06:35.337Z,5.70
2023-01-11T16:09:13.458Z,5.43
2023-01-11T16:11:45.510Z,5.57
2023-01-11T16:14:29.284Z,6.00
2023-01-11T16:16:59.224Z,5.53
2023-01-11T16:19:30.982Z,4.50
2023-01-11T16:22:02.562Z,6.10
2023-01-11T16:24:36.070Z,5.20
2023-01-11T16:27:06.167Z,7.07
2023-01-11T16:29:37.914Z,5.83
2023-01-11T16:32:08.452Z,6.07
2023-01-11T16:34:42.399Z,7.03
2023-01-11T16:37:21.783Z,7.57
2023-01-11T16:39:54.032Z,6.90
2023-01-11T16:42:23.561Z,7.30
2023-01-11T16:44:54.444Z,7.23
2023-01-11T16:47:24.853Z,6.67
2023-01-11T16:50:08.897Z,7.10
2023-01-11T16:52:44.862Z,5.87
2023-01-11T16:55:32.685Z,14.23
2023-01-11T16:58:05.916Z,8.40
2023-01-11T17:00:40.050Z,6.43
2023-01-11T17:03:19.926Z,5.60
2023-01-11T17:05:56.392Z,6.23
2023-01-11T17:08:27.030Z,6.30
2023-01-11T17:10:57.263Z,6.37
2023-01-11T17:13:56.343Z,6.43
2023-01-11T17:16:27.042Z,8.23
2023-01-11T17:18:56.660Z,6.17
2023-01-11T17:21:27.192Z,7.03
2023-01-11T17:24:00.399Z,6.37
2023-01-11T17:26:31.373Z,7.00
2023-01-11T17:29:02.743Z,6.47
2023-01-11T17:31:33.080Z,9.37
2023-01-11T17:34:03.860Z,7.17
2023-01-11T17:36:33.909Z,6.70
2023-01-11T17:39:03.787Z,7.63
2023-01-11T17:41:51.117Z,8.10
2023-01-11T17:44:40.621Z,8.30
2023-01-11T17:47:12.560Z,8.07
2023-01-11T17:49:42.344Z,6.53
2023-01-11T17:52:21.212Z,7.77
2023-01-11T17:55:01.382Z,7.10
2023-01-11T17:57:30.785Z,5.40
2023-01-11T18:00:18.690Z,5.50
2023-01-11T18:02:49.840Z,4.60
2023-01-11T18:05:20.841Z,6.30
2023-01-11T18:07:52.589Z,7.03
2023-01-11T18:10:23.370Z,5.63
2023-01-11T18:12:53.230Z,7.37
2023-01-11T18:15:26.077Z,5.60
2023-01-11T18:17:58.143Z,7.30
2023-01-11T18:20:37.823Z,9.10
2023-01-11T18:23:18.971Z,5.60
2023-01-11T18:25:48.610Z,5.87
2023-01-11T18:28:28.228Z,8.50
2023-01-11T18:31:00.690Z,6.10
2023-01-11T18:33:33.717Z,6.03
2023-01-11T18:36:03.647Z,7.23
2023-01-11T18:38:33.633Z,6.43
2023-01-11T18:41:26.232Z,5.70
2023-01-11T18:43:57.458Z,6.83
2023-01-11T18:46:26.805Z,6.87
2023-01-11T18:48:57.558Z,7.33
2023-01-11T18:51:29.618Z,6.63
2023-01-11T18:53:58.881Z,10.13
2023-01-11T18:56:28.660Z,9.83
2023-01-11T18:58:58.292Z,7.00
2023-01-11T19:01:28.101Z,9.00
2023-01-11T19:03:59.307Z,8.70
2023-01-11T19:06:28.800Z,8.80
2023-01-11T19:08:58.117Z,8.87
2023-01-11T19:11:29.038Z,7.80
2023-01-11T19:13:58.433Z,6.37
2023-01-11T19:16:27.674Z,7.90
2023-01-11T19:18:59.012Z,15.83
2023-01-11T19:21:28.332Z,9.50
2023-01-11T19:23:57.595Z,10.07
2023-01-11T19:26:27.928Z,8.50
2023-01-11T19:28:57.204Z,8.30
2023-01-11T19:31:26.484Z,8.30
2023-01-11T19:33:55.778Z,8.23
2023-01-11T19:36:26.848Z,7.70
2023-01-11T19:38:56.164Z,6.80
2023-01-11T19:41:25.495Z,6.57
2023-01-11T19:43:55.289Z,7.53
2023-01-11T19:46:31.662Z,5.37
2023-01-11T19:49:01.641Z,5.90
2023-01-11T19:51:32.293Z,5.10
2023-01-11T19:54:01.650Z,5.50
2023-01-11T19:56:30.882Z,8.37
2023-01-11T19:59:00.142Z,7.37
2023-01-11T20:01:29.364Z,7.40
2023-01-11T20:03:58.698Z,7.20
2023-01-11T20:06:27.938Z,7.90
2023-01-11T20:08:59.011Z,6.70
2023-01-11T20:11:28.403Z,7.33
2023-01-11T20:13:57.623Z,9.60
2023-01-11T20:16:26.828Z,6.93
2023-01-11T20:18:56.918Z,6.23
2023-01-11T20:21:27.238Z,5.23
2023-01-11T20:23:58.688Z,4.10
2023-01-11T20:26:30.719Z,4.40
2023-01-11T20:29:00.259Z,5.17
2023-01-11T20:31:31.889Z,5.10
2023-01-11T20:34:02.040Z,4.17
2023-01-11T20:36:31.318Z,5.23
2023-01-11T20:39:02.127Z,5.50
2023-01-11T20:41:50.253Z,5.53
2023-01-11T20:44:20.549Z,6.03
2023-01-11T20:46:50.106Z,6.30
2023-01-11T20:49:19.775Z,5.80
2023-01-11T20:51:49.073Z,5.00
2023-01-11T20:54:19.782Z,5.50
2023-01-11T20:56:49.131Z,6.20
2023-01-11T20:59:20.384Z,6.53
2023-01-11T21:01:50.529Z,6.20
2023-01-11T21:04:20.289Z,8.90
2023-01-11T21:06:49.996Z,8.27
2023-01-11T21:09:21.146Z,7.73
2023-01-11T21:11:54.069Z,7.87
2023-01-11T21:14:23.899Z,7.40
2023-01-11T21:16:55.358Z,7.07
2023-01-11T21:19:24.694Z,5.97
2023-01-11T21:21:53.886Z,6.40
2023-01-11T21:24:24.583Z,5.87
2023-01-11T21:26:53.838Z,5.60
2023-01-11T21:29:23.326Z,6.50
2023-01-11T21:31:52.609Z,5.93
2023-01-11T21:34:21.882Z,5.40
2023-01-11T21:36:51.041Z,5.73
2023-01-11T21:39:20.615Z,4.97
2023-01-11T21:41:58.858Z,5.30
2023-01-11T21:44:30.800Z,6.30
2023-01-11T21:47:00.370Z,5.73
2023-01-11T21:49:29.661Z,5.50
2023-01-11T21:51:59.029Z,5.00
2023-01-11T21:54:28.441Z,7.50
2023-01-11T21:56:59.570Z,8.07
2023-01-11T21:59:30.170Z,9.60
2023-01-11T22:01:59.489Z,19.70
2023-01-11T22:04:28.682Z,19.70
2023-01-11T22:07:00.205Z,13.80
2023-01-11T22:09:30.008Z,18.97
2023-01-11T22:12:00.627Z,12.80
2023-01-11T22:14:30.782Z,10.40
2023-01-11T22:16:59.974Z,8.93
2023-01-11T22:19:30.229Z,10.30
2023-01-11T22:21:59.889Z,10.43
2023-01-11T22:24:29.177Z,11.40
2023-01-11T22:26:58.423Z,10.13
2023-01-11T22:29:29.861Z,10.70
2023-01-11T22:32:01.502Z,9.17
2023-01-11T22:34:31.120Z,9.37
2023-01-11T22:37:00.515Z,9.80
2023-01-11T22:39:30.414Z,9.57
2023-01-11T22:41:59.885Z,7.60
2023-01-11T22:44:30.748Z,8.20
2023-01-11T22:47:00.604Z,10.30
2023-01-11T22:49:29.874Z,7.90
2023-01-11T22:51:59.156Z,9.03
2023-01-11T22:54:28.807Z,6.53
2023-01-11T22:56:58.717Z,6.57
2023-01-11T22:59:28.018Z,7.30
2023-01-11T23:01:58.737Z,7.23
2023-01-11T23:04:28.009Z,4.87
2023-01-11T23:06:57.370Z,5.90
2023-01-11T23:09:27.361Z,6.20
2023-01-11T23:12:14.236Z,7.10
2023-01-11T23:14:43.526Z,8.47
2023-01-11T23:17:14.142Z,9.07
2023-01-11T23:19:45.757Z,10.00
2023-01-11T23:22:17.128Z,10.70
2023-01-11T23:24:46.474Z,9.33
2023-01-11T23:27:15.855Z,9.40
2023-01-11T23:29:45.177Z,8.90
2023-01-11T23:32:15.874Z,10.20
2023-01-11T23:34:45.096Z,11.07
2023-01-11T23:37:14.230Z,10.70
2023-01-11T23:39:43.425Z,8.40
2023-01-11T23:42:27.708Z,7.60
2023-01-11T23:44:57.770Z,6.77
2023-01-11T23:47:29.927Z,6.60
2023-01-11T23:50:01.243Z,6.00
2023-01-11T23:52:30.982Z,5.70
2023-01-11T23:55:00.178Z,5.87
2023-01-11T23:57:29.521Z,6.67
2023-01-11T23:59:58.714Z,6.17
